sensor_id;sensor_type;location;lat;lon;timestamp;temperature;humidity
60313;DHT22;46158;52.850;6.970;2023-02-15T00:00:27;13.30;76.40
60313;DHT22;46158;52.850;6.970;2023-02-15T00:02:52;13.30;76.40
60313;DHT22;46158;52.850;6.970;2023-02-15T00:05:18;13.30;76.30
60313;DHT22;46158;52.850;6.970;2023-02-15T00:07:43;13.20;76.30
60313;DHT22;46158;52.850;6.970;2023-02-15T00:10:09;13.20;76.30
60313;DHT22;46158;52.850;6.970;2023-02-15T00:12:36;13.20;76.20
60313;DHT22;46158;52.850;6.970;2023-02-15T00:15:02;13.20;76.20
60313;DHT22;46158;52.850;6.970;2023-02-15T00:17:28;13.20;76.20
60313;DHT22;46158;52.850;6.970;2023-02-15T00:19:53;13.20;76.20
60313;DHT22;46158;52.850;6.970;2023-02-15T00:22:19;13.10;76.10
60313;DHT22;46158;52.850;6.970;2023-02-15T00:24:46;13.10;76.00
60313;DHT22;46158;52.850;6.970;2023-02-15T00:27:11;13.10;76.10
60313;DHT22;46158;52.850;6.970;2023-02-15T00:29:37;13.10;76.10
60313;DHT22;46158;52.850;6.970;2023-02-15T00:32:03;13.10;76.00
60313;DHT22;46158;52.850;6.970;2023-02-15T00:34:28;13.10;76.00
60313;DHT22;46158;52.850;6.970;2023-02-15T00:36:54;13.10;76.00
60313;DHT22;46158;52.850;6.970;2023-02-15T00:39:20;13.00;75.90
60313;DHT22;46158;52.850;6.970;2023-02-15T00:41:45;13.00;75.90
60313;DHT22;46158;52.850;6.970;2023-02-15T00:44:11;13.00;76.00
60313;DHT22;46158;52.850;6.970;2023-02-15T00:46:37;13.00;75.90
60313;DHT22;46158;52.850;6.970;2023-02-15T00:49:03;13.00;75.90
60313;DHT22;46158;52.850;6.970;2023-02-15T00:51:29;13.00;75.90
60313;DHT22;46158;52.850;6.970;2023-02-15T00:53:54;12.90;75.80
60313;DHT22;46158;52.850;6.970;2023-02-15T00:56:20;12.90;75.80
60313;DHT22;46158;52.850;6.970;2023-02-15T00:58:45;12.90;75.80
60313;DHT22;46158;52.850;6.970;2023-02-15T01:01:12;12.90;75.80
60313;DHT22;46158;52.850;6.970;2023-02-15T01:03:38;12.90;75.80
60313;DHT22;46158;52.850;6.970;2023-02-15T01:06:04;12.90;75.80
60313;DHT22;46158;52.850;6.970;2023-02-15T01:08:30;12.80;75.70
60313;DHT22;46158;52.850;6.970;2023-02-15T01:10:55;12.80;75.70
60313;DHT22;46158;52.850;6.970;2023-02-15T01:13:21;12.80;75.70
60313;DHT22;46158;52.850;6.970;2023-02-15T01:15:52;12.80;75.60
60313;DHT22;46158;52.850;6.970;2023-02-15T01:18:18;12.80;75.60
60313;DHT22;46158;52.850;6.970;2023-02-15T01:20:43;12.80;75.70
60313;DHT22;46158;52.850;6.970;2023-02-15T01:23:09;12.80;75.60
60313;DHT22;46158;52.850;6.970;2023-02-15T01:25:35;12.70;75.50
60313;DHT22;46158;52.850;6.970;2023-02-15T01:28:01;12.70;75.50
60313;DHT22;46158;52.850;6.970;2023-02-15T01:30:26;12.70;75.50
60313;DHT22;46158;52.850;6.970;2023-02-15T01:32:52;12.70;75.50
60313;DHT22;46158;52.850;6.970;2023-02-15T01:35:17;12.60;75.50
60313;DHT22;46158;52.850;6.970;2023-02-15T01:37:43;12.60;75.50
60313;DHT22;46158;52.850;6.970;2023-02-15T01:40:11;12.60;75.50
60313;DHT22;46158;52.850;6.970;2023-02-15T01:42:37;12.60;75.40
60313;DHT22;46158;52.850;6.970;2023-02-15T01:45:04;12.60;75.40
60313;DHT22;46158;52.850;6.970;2023-02-15T01:47:32;12.60;75.40
60313;DHT22;46158;52.850;6.970;2023-02-15T01:52:34;12.50;75.30
60313;DHT22;46158;52.850;6.970;2023-02-15T01:55:02;12.50;75.30
60313;DHT22;46158;52.850;6.970;2023-02-15T01:57:28;12.50;75.30
60313;DHT22;46158;52.850;6.970;2023-02-15T01:59:56;12.50;75.30
60313;DHT22;46158;52.850;6.970;2023-02-15T02:02:23;12.50;75.30
60313;DHT22;46158;52.850;6.970;2023-02-15T02:05:02;12.50;75.30
60313;DHT22;46158;52.850;6.970;2023-02-15T02:07:36;12.50;75.30
60313;DHT22;46158;52.850;6.970;2023-02-15T02:10:05;12.40;75.20
60313;DHT22;46158;52.850;6.970;2023-02-15T02:12:31;12.40;75.20
60313;DHT22;46158;52.850;6.970;2023-02-15T02:14:57;12.40;75.20
60313;DHT22;46158;52.850;6.970;2023-02-15T02:33:28;12.30;75.10
60313;DHT22;46158;52.850;6.970;2023-02-15T02:35:57;12.30;75.10
60313;DHT22;46158;52.850;6.970;2023-02-15T02:38:31;12.30;75.10
60313;DHT22;46158;52.850;6.970;2023-02-15T02:43:47;12.30;75.10
60313;DHT22;46158;52.850;6.970;2023-02-15T02:46:15;12.20;75.00
60313;DHT22;46158;52.850;6.970;2023-02-15T02:48:43;12.20;75.00
60313;DHT22;46158;52.850;6.970;2023-02-15T02:51:08;12.20;75.00
60313;DHT22;46158;52.850;6.970;2023-02-15T02:53:34;12.20;75.00
60313;DHT22;46158;52.850;6.970;2023-02-15T02:56:03;12.20;75.00
60313;DHT22;46158;52.850;6.970;2023-02-15T03:01:02;12.20;75.00
60313;DHT22;46158;52.850;6.970;2023-02-15T03:05:58;12.10;75.00
60313;DHT22;46158;52.850;6.970;2023-02-15T03:08:25;12.10;75.00
60313;DHT22;46158;52.850;6.970;2023-02-15T03:10:53;12.10;74.90
60313;DHT22;46158;52.850;6.970;2023-02-15T03:13:21;12.10;74.90
60313;DHT22;46158;52.850;6.970;2023-02-15T03:15:47;12.00;74.90
60313;DHT22;46158;52.850;6.970;2023-02-15T03:18:38;12.00;74.90
60313;DHT22;46158;52.850;6.970;2023-02-15T03:21:04;12.00;74.90
60313;DHT22;46158;52.850;6.970;2023-02-15T03:23:31;12.00;74.90
60313;DHT22;46158;52.850;6.970;2023-02-15T03:26:05;12.00;74.80
60313;DHT22;46158;52.850;6.970;2023-02-15T03:28:33;12.00;74.90
60313;DHT22;46158;52.850;6.970;2023-02-15T03:31:00;12.00;74.80
60313;DHT22;46158;52.850;6.970;2023-02-15T03:33:26;12.00;74.80
60313;DHT22;46158;52.850;6.970;2023-02-15T03:35:54;11.90;74.70
60313;DHT22;46158;52.850;6.970;2023-02-15T03:38:28;11.90;74.70
60313;DHT22;46158;52.850;6.970;2023-02-15T03:40:55;11.90;74.70
60313;DHT22;46158;52.850;6.970;2023-02-15T03:48:43;11.90;74.70
60313;DHT22;46158;52.850;6.970;2023-02-15T03:51:14;11.80;74.70
60313;DHT22;46158;52.850;6.970;2023-02-15T03:54:01;11.80;74.70
60313;DHT22;46158;52.850;6.970;2023-02-15T03:56:27;11.80;74.70
60313;DHT22;46158;52.850;6.970;2023-02-15T03:58:53;11.80;74.60
60313;DHT22;46158;52.850;6.970;2023-02-15T04:01:44;11.80;74.60
60313;DHT22;46158;52.850;6.970;2023-02-15T04:04:28;11.80;74.60
60313;DHT22;46158;52.850;6.970;2023-02-15T04:06:55;11.70;74.60
60313;DHT22;46158;52.850;6.970;2023-02-15T04:09:21;11.70;74.60
60313;DHT22;46158;52.850;6.970;2023-02-15T04:12:05;11.70;74.50
60313;DHT22;46158;52.850;6.970;2023-02-15T04:14:30;11.70;74.50
60313;DHT22;46158;52.850;6.970;2023-02-15T04:17:15;11.70;74.50
60313;DHT22;46158;52.850;6.970;2023-02-15T04:19:40;11.70;74.50
60313;DHT22;46158;52.850;6.970;2023-02-15T04:22:24;11.70;74.50
60313;DHT22;46158;52.850;6.970;2023-02-15T04:25:08;11.60;74.40
60313;DHT22;46158;52.850;6.970;2023-02-15T04:27:35;11.60;74.40
60313;DHT22;46158;52.850;6.970;2023-02-15T04:30:00;11.60;74.40
60313;DHT22;46158;52.850;6.970;2023-02-15T04:32:26;11.60;74.40
60313;DHT22;46158;52.850;6.970;2023-02-15T04:34:52;11.60;74.40
60313;DHT22;46158;52.850;6.970;2023-02-15T04:37:18;11.60;74.30
60313;DHT22;46158;52.850;6.970;2023-02-15T04:39:44;11.60;75.00
60313;DHT22;46158;52.850;6.970;2023-02-15T04:42:09;11.50;74.40
60313;DHT22;46158;52.850;6.970;2023-02-15T04:44:35;11.50;74.20
60313;DHT22;46158;52.850;6.970;2023-02-15T04:47:00;11.50;74.20
60313;DHT22;46158;52.850;6.970;2023-02-15T04:49:26;11.50;74.20
60313;DHT22;46158;52.850;6.970;2023-02-15T04:51:52;11.50;74.20
60313;DHT22;46158;52.850;6.970;2023-02-15T04:54:17;11.50;74.20
60313;DHT22;46158;52.850;6.970;2023-02-15T04:56:43;11.50;74.20
60313;DHT22;46158;52.850;6.970;2023-02-15T04:59:12;11.50;74.20
60313;DHT22;46158;52.850;6.970;2023-02-15T05:01:37;11.40;74.10
60313;DHT22;46158;52.850;6.970;2023-02-15T05:04:03;11.40;74.10
60313;DHT22;46158;52.850;6.970;2023-02-15T05:06:29;11.40;74.10
60313;DHT22;46158;52.850;6.970;2023-02-15T05:08:55;11.40;74.00
60313;DHT22;46158;52.850;6.970;2023-02-15T05:11:20;11.40;74.10
60313;DHT22;46158;52.850;6.970;2023-02-15T05:13:46;11.40;74.20
60313;DHT22;46158;52.850;6.970;2023-02-15T05:16:12;11.40;74.30
60313;DHT22;46158;52.850;6.970;2023-02-15T05:18:37;11.40;74.30
60313;DHT22;46158;52.850;6.970;2023-02-15T05:21:03;11.40;74.40
60313;DHT22;46158;52.850;6.970;2023-02-15T05:23:28;11.40;74.40
60313;DHT22;46158;52.850;6.970;2023-02-15T05:25:54;11.40;74.50
60313;DHT22;46158;52.850;6.970;2023-02-15T05:28:38;11.40;74.60
60313;DHT22;46158;52.850;6.970;2023-02-15T05:33:33;11.40;74.70
60313;DHT22;46158;52.850;6.970;2023-02-15T05:35:58;11.40;74.80
60313;DHT22;46158;52.850;6.970;2023-02-15T05:38:24;11.40;74.80
60313;DHT22;46158;52.850;6.970;2023-02-15T05:40:50;11.30;74.80
60313;DHT22;46158;52.850;6.970;2023-02-15T05:43:16;11.40;74.80
60313;DHT22;46158;52.850;6.970;2023-02-15T05:45:45;11.40;74.90
60313;DHT22;46158;52.850;6.970;2023-02-15T05:48:11;11.40;75.10
60313;DHT22;46158;52.850;6.970;2023-02-15T05:50:36;11.40;75.10
60313;DHT22;46158;52.850;6.970;2023-02-15T05:53:02;11.40;75.20
60313;DHT22;46158;52.850;6.970;2023-02-15T05:55:27;11.40;75.20
60313;DHT22;46158;52.850;6.970;2023-02-15T05:57:53;11.40;75.20
60313;DHT22;46158;52.850;6.970;2023-02-15T06:00:18;11.40;75.30
60313;DHT22;46158;52.850;6.970;2023-02-15T06:02:44;11.40;75.30
60313;DHT22;46158;52.850;6.970;2023-02-15T06:05:09;11.40;75.30
60313;DHT22;46158;52.850;6.970;2023-02-15T06:07:35;11.50;75.40
60313;DHT22;46158;52.850;6.970;2023-02-15T06:10:00;11.50;75.40
60313;DHT22;46158;52.850;6.970;2023-02-15T06:12:26;11.50;75.40
60313;DHT22;46158;52.850;6.970;2023-02-15T06:14:52;11.50;75.20
60313;DHT22;46158;52.850;6.970;2023-02-15T06:17:17;11.50;75.20
60313;DHT22;46158;52.850;6.970;2023-02-15T06:19:43;11.50;75.10
60313;DHT22;46158;52.850;6.970;2023-02-15T06:22:08;11.60;75.30
60313;DHT22;46158;52.850;6.970;2023-02-15T06:24:34;11.60;75.40
60313;DHT22;46158;52.850;6.970;2023-02-15T06:26:59;11.60;75.40
60313;DHT22;46158;52.850;6.970;2023-02-15T06:29:25;11.60;75.30
60313;DHT22;46158;52.850;6.970;2023-02-15T06:31:51;11.60;75.30
60313;DHT22;46158;52.850;6.970;2023-02-15T06:34:16;11.60;75.30
60313;DHT22;46158;52.850;6.970;2023-02-15T06:36:42;11.60;75.40
60313;DHT22;46158;52.850;6.970;2023-02-15T06:39:08;11.60;75.40
60313;DHT22;46158;52.850;6.970;2023-02-15T06:41:33;11.70;75.40
60313;DHT22;46158;52.850;6.970;2023-02-15T06:43:59;11.70;75.50
60313;DHT22;46158;52.850;6.970;2023-02-15T06:46:25;11.70;75.50
60313;DHT22;46158;52.850;6.970;2023-02-15T06:48:51;11.70;75.50
60313;DHT22;46158;52.850;6.970;2023-02-15T06:51:16;11.70;75.50
60313;DHT22;46158;52.850;6.970;2023-02-15T06:53:42;11.70;75.50
60313;DHT22;46158;52.850;6.970;2023-02-15T06:56:09;11.70;75.50
60313;DHT22;46158;52.850;6.970;2023-02-15T06:58:35;11.70;75.50
60313;DHT22;46158;52.850;6.970;2023-02-15T07:01:01;11.70;75.50
60313;DHT22;46158;52.850;6.970;2023-02-15T07:03:26;11.70;75.50
60313;DHT22;46158;52.850;6.970;2023-02-15T07:05:58;11.80;75.60
60313;DHT22;46158;52.850;6.970;2023-02-15T07:08:25;11.80;75.50
60313;DHT22;46158;52.850;6.970;2023-02-15T07:10:51;11.80;75.50
60313;DHT22;46158;52.850;6.970;2023-02-15T07:13:17;11.70;75.50
60313;DHT22;46158;52.850;6.970;2023-02-15T07:15:43;11.80;75.60
60313;DHT22;46158;52.850;6.970;2023-02-15T07:18:09;11.80;75.50
60313;DHT22;46158;52.850;6.970;2023-02-15T07:20:36;11.80;75.50
60313;DHT22;46158;52.850;6.970;2023-02-15T07:23:02;11.80;75.50
60313;DHT22;46158;52.850;6.970;2023-02-15T07:25:27;11.80;75.50
60313;DHT22;46158;52.850;6.970;2023-02-15T07:27:57;11.80;75.40
60313;DHT22;46158;52.850;6.970;2023-02-15T07:30:23;11.70;75.40
60313;DHT22;46158;52.850;6.970;2023-02-15T07:32:49;11.80;75.40
60313;DHT22;46158;52.850;6.970;2023-02-15T07:35:33;11.80;75.20
60313;DHT22;46158;52.850;6.970;2023-02-15T07:37:59;11.70;75.20
60313;DHT22;46158;52.850;6.970;2023-02-15T07:40:25;11.80;75.20
60313;DHT22;46158;52.850;6.970;2023-02-15T07:42:51;11.80;75.30
60313;DHT22;46158;52.850;6.970;2023-02-15T07:45:20;11.80;75.30
60313;DHT22;46158;52.850;6.970;2023-02-15T07:47:45;11.80;75.40
60313;DHT22;46158;52.850;6.970;2023-02-15T07:50:11;11.80;75.40
60313;DHT22;46158;52.850;6.970;2023-02-15T07:52:37;11.80;75.40
60313;DHT22;46158;52.850;6.970;2023-02-15T07:55:02;11.80;76.00
60313;DHT22;46158;52.850;6.970;2023-02-15T07:57:29;11.80;76.40
60313;DHT22;46158;52.850;6.970;2023-02-15T07:59:54;11.80;76.50
60313;DHT22;46158;52.850;6.970;2023-02-15T08:02:20;11.80;76.40
60313;DHT22;46158;52.850;6.970;2023-02-15T08:04:45;11.90;76.40
60313;DHT22;46158;52.850;6.970;2023-02-15T08:07:11;11.90;76.30
60313;DHT22;46158;52.850;6.970;2023-02-15T08:09:37;11.90;76.40
60313;DHT22;46158;52.850;6.970;2023-02-15T08:12:02;11.90;76.60
60313;DHT22;46158;52.850;6.970;2023-02-15T08:14:29;11.90;76.60
60313;DHT22;46158;52.850;6.970;2023-02-15T08:16:55;12.00;76.70
60313;DHT22;46158;52.850;6.970;2023-02-15T08:19:25;11.90;76.60
60313;DHT22;46158;52.850;6.970;2023-02-15T08:21:58;12.00;76.70
60313;DHT22;46158;52.850;6.970;2023-02-15T08:24:28;12.00;76.70
60313;DHT22;46158;52.850;6.970;2023-02-15T08:26:54;12.00;76.70
60313;DHT22;46158;52.850;6.970;2023-02-15T08:29:21;12.00;76.80
60313;DHT22;46158;52.850;6.970;2023-02-15T08:31:52;12.10;76.80
60313;DHT22;46158;52.850;6.970;2023-02-15T08:34:18;12.10;76.80
60313;DHT22;46158;52.850;6.970;2023-02-15T08:36:44;12.10;76.80
60313;DHT22;46158;52.850;6.970;2023-02-15T08:39:13;12.10;76.70
60313;DHT22;46158;52.850;6.970;2023-02-15T08:41:41;12.20;76.70
60313;DHT22;46158;52.850;6.970;2023-02-15T08:44:08;12.20;76.80
60313;DHT22;46158;52.850;6.970;2023-02-15T08:46:38;12.20;76.70
60313;DHT22;46158;52.850;6.970;2023-02-15T08:49:04;12.20;76.60
60313;DHT22;46158;52.850;6.970;2023-02-15T08:51:31;12.20;76.60
60313;DHT22;46158;52.850;6.970;2023-02-15T08:53:59;12.20;76.60
60313;DHT22;46158;52.850;6.970;2023-02-15T08:56:26;12.20;76.60
60313;DHT22;46158;52.850;6.970;2023-02-15T08:58:55;12.30;76.70
60313;DHT22;46158;52.850;6.970;2023-02-15T09:01:22;12.30;76.70
60313;DHT22;46158;52.850;6.970;2023-02-15T09:03:49;12.30;76.60
60313;DHT22;46158;52.850;6.970;2023-02-15T09:06:16;12.30;76.60
60313;DHT22;46158;52.850;6.970;2023-02-15T09:08:42;12.30;76.70
60313;DHT22;46158;52.850;6.970;2023-02-15T09:11:20;12.30;76.70
60313;DHT22;46158;52.850;6.970;2023-02-15T09:13:57;12.30;76.70
60313;DHT22;46158;52.850;6.970;2023-02-15T09:16:24;12.30;76.70
60313;DHT22;46158;52.850;6.970;2023-02-15T09:18:50;12.40;76.90
60313;DHT22;46158;52.850;6.970;2023-02-15T09:21:17;12.40;76.80
60313;DHT22;46158;52.850;6.970;2023-02-15T09:23:44;12.40;76.80
60313;DHT22;46158;52.850;6.970;2023-02-15T09:26:11;12.40;76.80
60313;DHT22;46158;52.850;6.970;2023-02-15T09:28:37;12.40;76.80
60313;DHT22;46158;52.850;6.970;2023-02-15T09:31:07;12.40;76.90
60313;DHT22;46158;52.850;6.970;2023-02-15T09:33:34;12.40;76.90
60313;DHT22;46158;52.850;6.970;2023-02-15T09:36:00;12.50;77.10
60313;DHT22;46158;52.850;6.970;2023-02-15T09:38:26;12.50;77.00
60313;DHT22;46158;52.850;6.970;2023-02-15T09:41:00;12.50;77.10
60313;DHT22;46158;52.850;6.970;2023-02-15T09:43:39;12.50;77.10
60313;DHT22;46158;52.850;6.970;2023-02-15T09:48:46;12.50;77.30
60313;DHT22;46158;52.850;6.970;2023-02-15T09:51:31;12.50;77.30
60313;DHT22;46158;52.850;6.970;2023-02-15T09:54:22;12.50;77.40
60313;DHT22;46158;52.850;6.970;2023-02-15T09:56:58;12.50;77.40
60313;DHT22;46158;52.850;6.970;2023-02-15T10:07:27;12.60;77.70
60313;DHT22;46158;52.850;6.970;2023-02-15T10:12:32;12.60;77.70
60313;DHT22;46158;52.850;6.970;2023-02-15T10:22:48;12.70;77.90
60313;DHT22;46158;52.850;6.970;2023-02-15T10:25:39;12.70;77.90
60313;DHT22;46158;52.850;6.970;2023-02-15T10:28:09;12.70;77.90
60313;DHT22;46158;52.850;6.970;2023-02-15T10:30:40;12.70;77.90
60313;DHT22;46158;52.850;6.970;2023-02-15T10:33:11;12.70;77.90
60313;DHT22;46158;52.850;6.970;2023-02-15T10:46:11;12.80;78.40
60313;DHT22;46158;52.850;6.970;2023-02-15T10:51:05;12.80;78.40
60313;DHT22;46158;52.850;6.970;2023-02-15T10:59:17;12.80;78.40
60313;DHT22;46158;52.850;6.970;2023-02-15T11:01:50;12.80;78.40
60313;DHT22;46158;52.850;6.970;2023-02-15T11:06:58;12.80;78.40
60313;DHT22;46158;52.850;6.970;2023-02-15T11:09:26;12.80;78.40
60313;DHT22;46158;52.850;6.970;2023-02-15T11:11:55;12.90;78.50
60313;DHT22;46158;52.850;6.970;2023-02-15T11:17:02;12.90;78.40
60313;DHT22;46158;52.850;6.970;2023-02-15T11:21:55;12.90;78.50
60313;DHT22;46158;52.850;6.970;2023-02-15T11:24:24;12.90;78.50
60313;DHT22;46158;52.850;6.970;2023-02-15T11:27:33;12.90;78.50
60313;DHT22;46158;52.850;6.970;2023-02-15T11:29:41;12.90;78.50
60313;DHT22;46158;52.850;6.970;2023-02-15T11:32:26;12.90;78.50
60313;DHT22;46158;52.850;6.970;2023-02-15T11:34:53;12.90;78.50
60313;DHT22;46158;52.850;6.970;2023-02-15T11:37:21;12.90;78.50
60313;DHT22;46158;52.850;6.970;2023-02-15T11:39:50;12.90;78.50
60313;DHT22;46158;52.850;6.970;2023-02-15T11:42:20;12.90;78.40
60313;DHT22;46158;52.850;6.970;2023-02-15T11:47:33;13.00;78.40
60313;DHT22;46158;52.850;6.970;2023-02-15T11:49:59;13.00;78.40
60313;DHT22;46158;52.850;6.970;2023-02-15T11:52:26;13.00;78.40
60313;DHT22;46158;52.850;6.970;2023-02-15T11:54:52;13.00;78.30
60313;DHT22;46158;52.850;6.970;2023-02-15T11:57:32;12.90;78.30
60313;DHT22;46158;52.850;6.970;2023-02-15T12:00:04;13.00;78.40
60313;DHT22;46158;52.850;6.970;2023-02-15T12:02:33;13.00;78.40
60313;DHT22;46158;52.850;6.970;2023-02-15T12:05:01;13.00;78.40
60313;DHT22;46158;52.850;6.970;2023-02-15T12:10:25;13.00;78.50
60313;DHT22;46158;52.850;6.970;2023-02-15T12:13:11;13.00;78.50
60313;DHT22;46158;52.850;6.970;2023-02-15T12:15:37;13.00;78.50
60313;DHT22;46158;52.850;6.970;2023-02-15T12:18:05;13.00;78.50
60313;DHT22;46158;52.850;6.970;2023-02-15T12:20:41;13.10;78.50
60313;DHT22;46158;52.850;6.970;2023-02-15T12:23:16;13.10;78.40
60313;DHT22;46158;52.850;6.970;2023-02-15T12:25:52;13.10;78.50
60313;DHT22;46158;52.850;6.970;2023-02-15T12:30:51;13.10;78.40
60313;DHT22;46158;52.850;6.970;2023-02-15T12:35:59;13.10;78.40
60313;DHT22;46158;52.850;6.970;2023-02-15T12:38:26;13.10;78.30
60313;DHT22;46158;52.850;6.970;2023-02-15T12:40:57;13.10;78.30
60313;DHT22;46158;52.850;6.970;2023-02-15T12:43:29;13.10;78.40
60313;DHT22;46158;52.850;6.970;2023-02-15T12:46:12;13.10;78.40
60313;DHT22;46158;52.850;6.970;2023-02-15T12:48:39;13.10;78.40
60313;DHT22;46158;52.850;6.970;2023-02-15T12:51:08;13.20;78.50
60313;DHT22;46158;52.850;6.970;2023-02-15T12:53:35;13.10;78.40
60313;DHT22;46158;52.850;6.970;2023-02-15T12:56:05;13.20;79.10
60313;DHT22;46158;52.850;6.970;2023-02-15T12:58:32;13.20;78.40
60313;DHT22;46158;52.850;6.970;2023-02-15T13:01:17;13.20;79.10
60313;DHT22;46158;52.850;6.970;2023-02-15T13:04:00;13.20;78.30
60313;DHT22;46158;52.850;6.970;2023-02-15T13:06:28;13.20;78.30
60313;DHT22;46158;52.850;6.970;2023-02-15T13:08:56;13.20;78.30
60313;DHT22;46158;52.850;6.970;2023-02-15T13:11:27;13.20;78.30
60313;DHT22;46158;52.850;6.970;2023-02-15T13:13:58;13.20;78.30
60313;DHT22;46158;52.850;6.970;2023-02-15T13:16:29;13.20;78.30
60313;DHT22;46158;52.850;6.970;2023-02-15T13:18:56;13.20;78.30
60313;DHT22;46158;52.850;6.970;2023-02-15T13:21:24;13.20;78.30
60313;DHT22;46158;52.850;6.970;2023-02-15T13:23:55;13.20;78.30
60313;DHT22;46158;52.850;6.970;2023-02-15T13:26:23;13.20;78.30
60313;DHT22;46158;52.850;6.970;2023-02-15T13:28:52;13.30;78.30
60313;DHT22;46158;52.850;6.970;2023-02-15T13:31:20;13.30;78.30
60313;DHT22;46158;52.850;6.970;2023-02-15T13:33:50;13.30;78.30
60313;DHT22;46158;52.850;6.970;2023-02-15T13:41:30;13.30;78.30
60313;DHT22;46158;52.850;6.970;2023-02-15T13:54:49;13.30;78.00
60313;DHT22;46158;52.850;6.970;2023-02-15T14:04:52;13.30;77.90
60313;DHT22;46158;52.850;6.970;2023-02-15T14:20:03;13.40;78.10
60313;DHT22;46158;52.850;6.970;2023-02-15T14:22:44;13.30;78.00
60313;DHT22;46158;52.850;6.970;2023-02-15T14:30:39;13.40;78.00
60313;DHT22;46158;52.850;6.970;2023-02-15T14:33:16;13.40;78.00
60313;DHT22;46158;52.850;6.970;2023-02-15T14:35:44;13.40;78.00
60313;DHT22;46158;52.850;6.970;2023-02-15T14:40:56;13.40;77.90
60313;DHT22;46158;52.850;6.970;2023-02-15T14:45:56;13.40;77.80
60313;DHT22;46158;52.850;6.970;2023-02-15T14:48:28;13.40;77.80
60313;DHT22;46158;52.850;6.970;2023-02-15T14:50:55;13.50;77.80
60313;DHT22;46158;52.850;6.970;2023-02-15T14:56:06;13.40;77.90
60313;DHT22;46158;52.850;6.970;2023-02-15T14:58:38;13.50;77.90
60313;DHT22;46158;52.850;6.970;2023-02-15T15:01:24;13.50;78.00
60313;DHT22;46158;52.850;6.970;2023-02-15T15:03:51;13.50;77.90
60313;DHT22;46158;52.850;6.970;2023-02-15T15:06:29;13.50;77.90
60313;DHT22;46158;52.850;6.970;2023-02-15T15:08:58;13.50;77.80
60313;DHT22;46158;52.850;6.970;2023-02-15T15:14:00;13.50;77.80
60313;DHT22;46158;52.850;6.970;2023-02-15T15:16:30;13.50;77.80
60313;DHT22;46158;52.850;6.970;2023-02-15T15:18:56;13.50;77.80
60313;DHT22;46158;52.850;6.970;2023-02-15T15:24:07;13.50;77.80
60313;DHT22;46158;52.850;6.970;2023-02-15T15:26:32;13.50;77.70
60313;DHT22;46158;52.850;6.970;2023-02-15T15:29:12;13.50;77.70
60313;DHT22;46158;52.850;6.970;2023-02-15T15:31:44;13.50;77.60
60313;DHT22;46158;52.850;6.970;2023-02-15T15:34:19;13.50;77.60
60313;DHT22;46158;52.850;6.970;2023-02-15T15:41:54;13.60;77.60
60313;DHT22;46158;52.850;6.970;2023-02-15T15:49:34;13.50;77.50
60313;DHT22;46158;52.850;6.970;2023-02-15T15:52:02;13.50;77.60
60313;DHT22;46158;52.850;6.970;2023-02-15T15:54:28;13.50;77.60
60313;DHT22;46158;52.850;6.970;2023-02-15T15:56:58;13.50;77.60
60313;DHT22;46158;52.850;6.970;2023-02-15T15:59:26;13.50;77.60
60313;DHT22;46158;52.850;6.970;2023-02-15T16:01:53;13.50;77.60
60313;DHT22;46158;52.850;6.970;2023-02-15T16:04:23;13.50;77.60
60313;DHT22;46158;52.850;6.970;2023-02-15T16:06:49;13.50;77.60
60313;DHT22;46158;52.850;6.970;2023-02-15T16:09:20;13.50;77.60
60313;DHT22;46158;52.850;6.970;2023-02-15T16:11:47;13.50;77.60
60313;DHT22;46158;52.850;6.970;2023-02-15T16:14:27;13.50;77.60
60313;DHT22;46158;52.850;6.970;2023-02-15T16:16:55;13.60;77.60
60313;DHT22;46158;52.850;6.970;2023-02-15T16:19:23;13.60;77.60
60313;DHT22;46158;52.850;6.970;2023-02-15T16:21:49;13.50;77.50
60313;DHT22;46158;52.850;6.970;2023-02-15T16:29:29;13.50;77.50
60313;DHT22;46158;52.850;6.970;2023-02-15T16:31:57;13.50;77.40
60313;DHT22;46158;52.850;6.970;2023-02-15T16:34:22;13.60;77.50
60313;DHT22;46158;52.850;6.970;2023-02-15T16:36:48;13.50;77.50
60313;DHT22;46158;52.850;6.970;2023-02-15T16:39:19;13.50;77.50
60313;DHT22;46158;52.850;6.970;2023-02-15T16:41:44;13.60;77.60
60313;DHT22;46158;52.850;6.970;2023-02-15T16:44:16;13.60;77.60
60313;DHT22;46158;52.850;6.970;2023-02-15T16:46:43;13.50;77.70
60313;DHT22;46158;52.850;6.970;2023-02-15T16:49:16;13.50;77.80
60313;DHT22;46158;52.850;6.970;2023-02-15T16:51:43;13.60;77.90
60313;DHT22;46158;52.850;6.970;2023-02-15T16:54:14;13.60;78.00
60313;DHT22;46158;52.850;6.970;2023-02-15T16:56:42;13.60;78.00
60313;DHT22;46158;52.850;6.970;2023-02-15T16:59:14;13.60;78.00
60313;DHT22;46158;52.850;6.970;2023-02-15T17:01:42;13.60;78.10
60313;DHT22;46158;52.850;6.970;2023-02-15T17:06:38;13.60;78.70
60313;DHT22;46158;52.850;6.970;2023-02-15T17:09:05;13.60;78.40
60313;DHT22;46158;52.850;6.970;2023-02-15T17:11:40;13.60;78.40
60313;DHT22;46158;52.850;6.970;2023-02-15T17:16:35;13.60;78.40
60313;DHT22;46158;52.850;6.970;2023-02-15T17:19:01;13.60;78.30
60313;DHT22;46158;52.850;6.970;2023-02-15T17:21:30;13.60;78.40
60313;DHT22;46158;52.850;6.970;2023-02-15T17:23:59;13.60;78.30
60313;DHT22;46158;52.850;6.970;2023-02-15T17:26:26;13.60;78.30
60313;DHT22;46158;52.850;6.970;2023-02-15T17:28:54;13.60;78.20
60313;DHT22;46158;52.850;6.970;2023-02-15T17:31:21;13.60;78.20
60313;DHT22;46158;52.850;6.970;2023-02-15T17:33:49;13.60;78.20
60313;DHT22;46158;52.850;6.970;2023-02-15T17:36:16;13.60;78.20
60313;DHT22;46158;52.850;6.970;2023-02-15T17:41:29;13.60;78.30
60313;DHT22;46158;52.850;6.970;2023-02-15T17:43:55;13.70;78.30
60313;DHT22;46158;52.850;6.970;2023-02-15T17:46:21;13.60;78.30
60313;DHT22;46158;52.850;6.970;2023-02-15T17:48:47;13.60;78.30
60313;DHT22;46158;52.850;6.970;2023-02-15T17:51:13;13.70;78.40
60313;DHT22;46158;52.850;6.970;2023-02-15T17:53:39;13.60;78.30
60313;DHT22;46158;52.850;6.970;2023-02-15T17:56:05;13.70;78.40
60313;DHT22;46158;52.850;6.970;2023-02-15T17:58:35;13.70;78.40
60313;DHT22;46158;52.850;6.970;2023-02-15T18:01:02;13.70;78.40
60313;DHT22;46158;52.850;6.970;2023-02-15T18:03:48;13.70;78.40
60313;DHT22;46158;52.850;6.970;2023-02-15T18:06:37;13.70;78.30
60313;DHT22;46158;52.850;6.970;2023-02-15T18:09:22;13.70;78.30
60313;DHT22;46158;52.850;6.970;2023-02-15T18:14:44;13.70;78.10
60313;DHT22;46158;52.850;6.970;2023-02-15T18:17:10;13.70;78.10
60313;DHT22;46158;52.850;6.970;2023-02-15T18:19:36;13.70;78.00
60313;DHT22;46158;52.850;6.970;2023-02-15T18:22:07;13.70;78.10
60313;DHT22;46158;52.850;6.970;2023-02-15T18:24:33;13.80;78.00
60313;DHT22;46158;52.850;6.970;2023-02-15T18:26:59;13.70;78.00
60313;DHT22;46158;52.850;6.970;2023-02-15T18:29:24;13.70;77.90
60313;DHT22;46158;52.850;6.970;2023-02-15T18:31:51;13.70;77.90